Letham, United Kingdom
Current Conditions -  °F | °C
As of 12:20 PM on Thursday 30 Oct 2014 (Local Time) from EGPN Reporting Station
Broken Clouds Broken Clouds  
Wind Chill: 52°   Ceiling: 1800
Heat Index: 52°   Visibility: 5mi
Dew Point: 52°   Wind: 1mph
Humidity: 100%   Direction: 70°ENE
Pressure: 29.88"   Gusts: NA
Location:  56.62°N, 2.77°W
Report Text: EGPN 301220Z 07001KT 8000 SCT008 BKN018 11/11 Q1012
Loading
Personal Weather Stations






























Interactive Weather Map
Tropical Storm Tracking
New forecast layout! Learn more

10-Day Weather Forecast

Advertisements
Track Severe Weather on mobile